Time;durP1;ratioP1;P1;durP2;ratioP2;P2;SDS_P1;SDS_P2;PMS_P1;PMS_P2;Temp;Humidity;BMP_temperature;BMP_pressure;BME280_temperature;BME280_humidity;BME280_pressure;Samples;Min_cycle;Max_cycle;Signal;HPM_P1;HPM_P2
2023/05/21 00:02:17;;;;;;;1999.90;999.90;;;;;;;24.51;35.77;102030.56;5048683;28;20552;-67
2023/05/21 00:04:46;;;;;;;1999.90;999.90;;;;;;;23.79;37.29;102039.38;5049625;28;20484;-67
2023/05/21 00:07:12;;;;;;;1999.90;999.90;;;;;;;23.79;37.35;102040.22;5048707;28;20021;-67
2023/05/21 00:09:37;;;;;;;1999.90;999.90;;;;;;;24.93;35.62;102027.63;5050465;28;20029;-67
2023/05/21 00:12:09;;;;;;;1999.90;999.90;;;;;;;24.20;35.86;102034.75;5049784;28;20075;-67
2023/05/21 00:14:35;;;;;;;1999.90;999.90;;;;;;;24.58;36.23;102027.56;5050356;28;20124;-67
2023/05/21 00:17:00;;;;;;;1999.90;999.90;;;;;;;23.80;36.73;102031.28;5049978;28;20540;-68
2023/05/21 00:19:26;;;;;;;1999.90;999.90;;;;;;;24.35;36.42;102017.09;5049073;28;20070;-67
2023/05/21 00:21:51;;;;;;;1999.90;999.90;;;;;;;23.74;37.82;102028.91;5050342;28;20055;-67
2023/05/21 00:24:17;;;;;;;1503.95;753.75;;;;;;;24.20;36.39;102020.53;5048395;28;20115;-67
2023/05/21 00:26:42;;;;;;;16.25;15.45;;;;;;;24.22;37.46;102022.19;5047889;28;20021;-68
2023/05/21 00:29:07;;;;;;;16.33;15.50;;;;;;;23.90;37.54;102015.72;5048138;28;20428;-67
2023/05/21 00:31:33;;;;;;;14.93;14.13;;;;;;;24.43;36.63;102013.16;5050000;28;20021;-67
2023/05/21 00:33:58;;;;;;;15.70;14.90;;;;;;;23.61;37.95;102015.25;5048049;28;20435;-67
2023/05/21 00:36:24;;;;;;;15.50;14.63;;;;;;;23.84;38.17;102016.84;5049439;28;20024;-68
2023/05/21 00:38:50;;;;;;;16.25;15.35;;;;;;;24.74;36.61;102004.50;5048461;28;20029;-68
2023/05/21 00:41:16;;;;;;;16.48;15.38;;;;;;;24.18;37.26;102009.94;5047485;28;20025;-68
2023/05/21 00:43:43;;;;;;;15.95;15.05;;;;;;;24.65;37.21;102013.00;5049897;28;20035;-67
2023/05/21 00:46:12;;;;;;;16.95;16.05;;;;;;;24.60;37.15;102015.00;5049244;28;20044;-68
2023/05/21 00:48:38;;;;;;;17.15;16.17;;;;;;;24.79;36.89;102012.28;5047655;28;20056;-67
2023/05/21 00:51:05;;;;;;;1999.90;999.90;;;;;;;24.47;37.74;102010.28;5048441;28;20092;-67
2023/05/21 00:53:33;;;;;;;1999.90;999.90;;;;;;;24.06;38.99;102018.53;5048153;28;20031;-67
2023/05/21 00:55:59;;;;;;;1999.90;999.90;;;;;;;24.54;38.15;102011.69;5047533;28;20712;-67
2023/05/21 00:58:25;;;;;;;1999.90;999.90;;;;;;;24.35;38.97;102005.56;5047659;28;20087;-68
2023/05/21 01:00:54;;;;;;;1999.90;999.90;;;;;;;22.98;41.47;102015.41;5048146;28;20025;-67
2023/05/21 01:03:21;;;;;;;1999.90;999.90;;;;;;;23.64;40.57;102008.91;5047829;28;20029;-68
2023/05/21 01:05:49;;;;;;;1999.90;999.90;;;;;;;23.50;40.49;102007.75;5048015;28;20021;-67
2023/05/21 01:08:14;;;;;;;1503.85;753.65;;;;;;;24.20;39.59;102000.00;5047064;28;20124;-68
2023/05/21 01:10:40;;;;;;;15.88;15.07;;;;;;;24.30;39.35;101996.91;5048189;28;20108;-67
2023/05/21 01:13:06;;;;;;;1999.90;999.90;;;;;;;23.26;41.49;102003.53;5047535;28;20037;-68
2023/05/21 01:15:31;;;;;;;1999.90;999.90;;;;;;;24.34;39.62;101993.13;5047218;28;20099;-67
2023/05/21 01:17:57;;;;;;;1504.00;753.78;;;;;;;23.26;41.89;102003.53;5047885;28;20035;-68
2023/05/21 01:20:23;;;;;;;1503.60;753.38;;;;;;;23.58;41.60;101994.06;5047379;28;20025;-68
2023/05/21 01:22:55;;;;;;;1503.80;753.60;;;;;;;24.70;39.31;101979.75;5048684;28;20052;-68
2023/05/21 01:25:24;;;;;;;1999.90;999.90;;;;;;;24.14;40.07;101986.97;5047597;28;20453;-67
2023/05/21 01:27:50;;;;;;;1999.90;999.90;;;;;;;24.67;38.99;101979.03;5047940;28;20375;-67
2023/05/21 01:30:20;;;;;;;1999.90;999.90;;;;;;;24.50;39.13;101978.06;5046915;28;20021;-67
2023/05/21 01:32:52;;;;;;;1999.90;999.90;;;;;;;24.60;39.08;101978.44;5047844;28;20090;-67
2023/05/21 01:35:25;;;;;;;1999.90;999.90;;;;;;;25.33;37.91;101977.38;5047364;28;20024;-68
2023/05/21 01:38:30;;;;;;;1999.90;999.90;;;;;;;25.36;37.76;101974.53;5047128;28;20079;-68
2023/05/21 01:41:04;;;;;;;1999.90;999.90;;;;;;;24.54;39.77;101984.13;5047825;28;20051;-67
2023/05/21 01:43:35;;;;;;;1999.90;999.90;;;;;;;24.80;39.20;101984.59;5047115;28;20025;-67
2023/05/21 01:46:01;;;;;;;1999.90;999.90;;;;;;;24.37;39.34;101987.63;5048426;28;20021;-68
2023/05/21 01:48:28;;;;;;;1999.90;999.90;;;;;;;25.25;38.55;101991.13;5047199;28;20393;-68
2023/05/21 01:50:56;;;;;;;1999.90;999.90;;;;;;;25.21;38.76;101987.78;5048374;28;20025;-67
2023/05/21 01:53:22;;;;;;;1999.90;999.90;;;;;;;23.70;41.27;101997.97;5047296;28;20044;-68
2023/05/21 01:55:47;;;;;;;1999.90;999.90;;;;;;;24.61;39.59;101982.00;5049234;28;20457;-67
2023/05/21 01:58:14;;;;;;;1999.90;999.90;;;;;;;25.46;38.23;101983.78;5046309;28;20045;-68
2023/05/21 02:00:40;;;;;;;1999.90;999.90;;;;;;;25.34;38.56;101984.47;5049327;28;20032;-67
2023/05/21 02:03:06;;;;;;;1999.90;999.90;;;;;;;25.40;38.11;101984.09;5047235;28;20025;-68
2023/05/21 02:05:32;;;;;;;1999.90;999.90;;;;;;;24.62;39.30;101986.41;5047961;28;20060;-67
2023/05/21 02:08:00;;;;;;;1999.90;999.90;;;;;;;24.63;39.33;101977.47;5049069;28;20028;-67
2023/05/21 02:10:25;;;;;;;1999.90;999.90;;;;;;;25.51;38.03;101981.72;5047197;28;20024;-68
2023/05/21 02:12:51;;;;;;;1999.90;999.90;;;;;;;24.36;40.24;101988.59;5050395;28;20476;-67
2023/05/21 02:15:17;;;;;;;1999.90;999.90;;;;;;;24.64;39.90;101977.38;5050651;28;20730;-68
2023/05/21 02:17:44;;;;;;;1999.90;999.90;;;;;;;25.23;38.38;101975.16;5050922;28;20554;-68
2023/05/21 02:20:11;;;;;;;1999.90;999.90;;;;;;;25.54;37.69;101969.97;5050295;28;20024;-68
2023/05/21 02:22:46;;;;;;;1999.90;999.90;;;;;;;25.90;36.90;101982.25;5051302;28;20036;-68
2023/05/21 02:25:17;;;;;;;1999.90;999.90;;;;;;;25.29;37.88;101976.63;5051545;28;20032;-68
2023/05/21 02:27:43;;;;;;;1999.90;999.90;;;;;;;25.96;36.67;101970.31;5052380;28;20056;-67
2023/05/21 02:30:10;;;;;;;1999.90;999.90;;;;;;;25.13;38.30;101981.97;5050572;28;20032;-68
2023/05/21 02:32:36;;;;;;;1999.90;999.90;;;;;;;25.81;37.13;101975.59;5050156;28;20107;-67
2023/05/21 02:35:02;;;;;;;1999.90;999.90;;;;;;;24.98;37.74;101972.09;5050917;28;20078;-67
2023/05/21 02:37:32;;;;;;;1999.90;999.90;;;;;;;24.43;38.98;101982.00;5051763;28;20171;-67
2023/05/21 02:39:59;;;;;;;1999.90;999.90;;;;;;;25.50;37.41;101974.66;5050201;28;20537;-68
2023/05/21 02:42:25;;;;;;;1999.90;999.90;;;;;;;25.43;37.91;101969.69;5049993;28;20404;-68
2023/05/21 02:44:51;;;;;;;1999.90;999.90;;;;;;;24.78;38.37;101976.66;5050579;28;20036;-67
2023/05/21 02:47:21;;;;;;;1999.90;999.90;;;;;;;25.61;37.63;101975.84;5049539;28;20052;-68
2023/05/21 02:49:49;;;;;;;1999.90;999.90;;;;;;;24.09;40.34;101985.47;5051959;28;20043;-67
2023/05/21 02:52:17;;;;;;;1999.90;999.90;;;;;;;25.16;38.17;101970.25;5049962;28;20443;-68
2023/05/21 02:54:43;;;;;;;1999.90;999.90;;;;;;;25.20;37.92;101977.16;5049843;28;20033;-67
2023/05/21 02:57:08;;;;;;;1999.90;999.90;;;;;;;23.83;40.89;101988.41;5050979;28;20083;-67
2023/05/21 02:59:33;;;;;;;1999.90;999.90;;;;;;;25.12;39.01;101979.38;5050301;28;20481;-68
2023/05/21 03:01:59;;;;;;;1999.90;999.90;;;;;;;24.53;39.81;101977.88;5049526;28;20033;-68
2023/05/21 03:04:27;;;;;;;1999.90;999.90;;;;;;;25.04;38.96;101971.75;5049961;28;20031;-67
2023/05/21 03:06:53;;;;;;;1999.90;999.90;;;;;;;24.25;40.48;101972.22;5050214;28;20488;-68
2023/05/21 03:09:22;;;;;;;1999.90;999.90;;;;;;;24.62;40.22;101970.38;5049055;28;20508;-67
2023/05/21 03:11:51;;;;;;;1999.90;999.90;;;;;;;25.39;37.83;101971.69;5050170;28;20105;-68
2023/05/21 03:14:16;;;;;;;1999.90;999.90;;;;;;;25.33;38.87;101969.34;5049581;28;20025;-67
2023/05/21 03:16:42;;;;;;;1999.90;999.90;;;;;;;25.09;38.80;101964.34;5049381;28;20537;-67
2023/05/21 03:19:08;;;;;;;1999.90;999.90;;;;;;;25.34;38.23;101965.72;5049502;28;20025;-68
2023/05/21 03:21:35;;;;;;;1999.90;999.90;;;;;;;24.19;39.84;101968.94;5049167;28;20039;-68
2023/05/21 03:24:01;;;;;;;1999.90;999.90;;;;;;;24.95;38.59;101958.88;5049348;28;20392;-68
2023/05/21 03:26:28;;;;;;;1999.90;999.90;;;;;;;24.16;40.37;101969.06;5049496;28;20025;-67
2023/05/21 03:28:54;;;;;;;1999.90;999.90;;;;;;;24.27;40.29;101963.19;5050460;28;20163;-67
2023/05/21 03:31:20;;;;;;;1999.90;999.90;;;;;;;25.34;37.92;101957.72;5049438;28;20029;-68
2023/05/21 03:33:45;;;;;;;1999.90;999.90;;;;;;;24.13;39.84;101963.88;5049900;28;20460;-67
2023/05/21 03:36:11;;;;;;;1999.90;999.90;;;;;;;22.97;42.07;101971.91;5048085;28;20541;-67
2023/05/21 03:38:36;;;;;;;1999.90;999.90;;;;;;;23.40;41.64;101968.22;5049700;28;20021;-68
2023/05/21 03:41:01;;;;;;;1999.90;999.90;;;;;;;24.40;39.25;101960.78;5051393;28;20475;-67
2023/05/21 03:43:27;;;;;;;1999.90;999.90;;;;;;;24.36;39.81;101953.84;5048587;28;20089;-67
2023/05/21 03:45:53;;;;;;;1999.90;999.90;;;;;;;23.75;40.09;101963.03;5049817;28;20029;-67
2023/05/21 03:48:18;;;;;;;1999.90;999.90;;;;;;;23.81;40.83;101963.63;5049098;28;20102;-67
2023/05/21 03:50:44;;;;;;;1999.90;999.90;;;;;;;24.06;39.39;101962.47;5048717;28;20070;-67
2023/05/21 03:53:09;;;;;;;1999.90;999.90;;;;;;;24.73;38.19;101965.38;5049074;28;20044;-67
2023/05/21 03:55:35;;;;;;;1999.90;999.90;;;;;;;24.90;38.25;101967.13;5049483;28;20536;-67
2023/05/21 03:58:01;;;;;;;1999.90;999.90;;;;;;;24.19;39.11;101963.59;5048222;28;20045;-67
2023/05/21 04:00:26;;;;;;;1999.90;999.90;;;;;;;24.38;38.83;101968.00;5050284;28;20143;-68
2023/05/21 04:02:51;;;;;;;1999.90;999.90;;;;;;;25.31;37.74;101956.03;5049008;28;20021;-67
2023/05/21 04:05:17;;;;;;;1999.90;999.90;;;;;;;24.43;38.83;101955.28;5049331;28;20147;-67
2023/05/21 04:07:45;;;;;;;1999.90;999.90;;;;;;;24.46;38.77;101952.44;5049091;28;20245;-67
2023/05/21 04:10:11;;;;;;;1999.90;999.90;;;;;;;24.56;38.81;101953.72;5048219;28;20028;-67
2023/05/21 04:12:36;;;;;;;1999.90;999.90;;;;;;;24.56;38.44;101956.38;5048524;28;20032;-68
2023/05/21 04:15:02;;;;;;;1999.90;999.90;;;;;;;24.44;38.90;101954.34;5050649;28;20029;-67
2023/05/21 04:17:27;;;;;;;1999.90;999.90;;;;;;;24.05;39.74;101952.72;5048429;28;20035;-67
2023/05/21 04:19:53;;;;;;;1999.90;999.90;;;;;;;24.17;38.92;101954.78;5049451;28;20028;-67
2023/05/21 04:22:18;;;;;;;1999.90;999.90;;;;;;;24.12;39.74;101950.59;5048363;28;20415;-67
2023/05/21 04:24:45;;;;;;;1999.90;999.90;;;;;;;23.98;39.97;101961.97;5050230;28;20028;-67
2023/05/21 04:27:11;;;;;;;1999.90;999.90;;;;;;;23.11;41.03;101965.94;5048013;28;20103;-67
2023/05/21 04:29:36;;;;;;;1999.90;999.90;;;;;;;22.83;42.16;101967.19;5048767;28;20107;-68
2023/05/21 04:32:04;;;;;;;1999.90;999.90;;;;;;;23.91;40.77;101965.88;5047932;28;20405;-67
2023/05/21 04:34:31;;;;;;;1999.90;999.90;;;;;;;22.43;43.21;101960.88;5048713;28;20083;-68
2023/05/21 04:36:57;;;;;;;1999.90;999.90;;;;;;;23.97;40.61;101968.25;5047474;28;20111;-68
2023/05/21 04:39:22;;;;;;;1999.90;999.90;;;;;;;24.36;39.18;101964.53;5048585;28;20396;-67
2023/05/21 04:41:49;;;;;;;1999.90;999.90;;;;;;;23.17;40.90;101973.69;5048501;28;20025;-68
2023/05/21 04:44:14;;;;;;;1999.90;999.90;;;;;;;23.88;40.41;101972.22;5048106;28;20401;-67
2023/05/21 04:46:40;;;;;;;1999.90;999.90;;;;;;;22.84;42.50;101974.22;5047690;28;20017;-68
2023/05/21 04:49:05;;;;;;;1999.90;999.90;;;;;;;23.00;41.50;101965.56;5047773;28;20057;-67
2023/05/21 04:51:30;;;;;;;1999.90;999.90;;;;;;;24.35;40.15;101962.81;5048342;28;20025;-67
2023/05/21 04:53:57;;;;;;;1999.90;999.90;;;;;;;24.24;40.03;101959.81;5047283;28;20024;-67
2023/05/21 04:56:25;;;;;;;1999.90;999.90;;;;;;;24.03;40.92;101962.63;5047752;28;20484;-67
2023/05/21 04:58:53;;;;;;;1999.90;999.90;;;;;;;23.45;41.71;101967.09;5047943;28;20107;-67
2023/05/21 05:01:21;;;;;;;1999.90;999.90;;;;;;;23.18;42.46;101964.75;5048433;28;20423;-67
2023/05/21 05:03:47;;;;;;;1999.90;999.90;;;;;;;23.82;41.26;101961.81;5048369;28;20036;-67
2023/05/21 05:06:12;;;;;;;1999.90;999.90;;;;;;;23.98;41.49;101959.31;5047824;28;20032;-67
2023/05/21 05:08:38;;;;;;;1999.90;999.90;;;;;;;24.10;41.41;101957.81;5047323;28;20033;-68
2023/05/21 05:11:04;;;;;;;1999.90;999.90;;;;;;;24.00;41.56;101957.41;5047844;28;20062;-67
2023/05/21 05:13:29;;;;;;;1999.90;999.90;;;;;;;23.73;41.49;101960.44;5048270;28;20029;-67
2023/05/21 05:15:56;;;;;;;1999.90;999.90;;;;;;;24.14;41.47;101954.94;5047405;28;20028;-67
2023/05/21 05:18:21;;;;;;;1999.90;999.90;;;;;;;23.93;42.33;101955.97;5047357;28;20104;-67
2023/05/21 05:20:47;;;;;;;1999.90;999.90;;;;;;;23.86;42.28;101961.59;5048148;28;20120;-67
2023/05/21 05:23:12;;;;;;;1999.90;999.90;;;;;;;24.08;41.96;101955.22;5046911;28;20016;-67
2023/05/21 05:25:37;;;;;;;1999.90;999.90;;;;;;;22.93;44.23;101958.75;5048195;28;20025;-67
2023/05/21 05:28:07;;;;;;;1999.90;999.90;;;;;;;22.53;45.17;101951.56;5047637;28;20468;-67
2023/05/21 05:30:32;;;;;;;1999.90;999.90;;;;;;;24.47;41.89;101940.81;5048111;28;20028;-68
2023/05/21 05:32:57;;;;;;;1999.90;999.90;;;;;;;24.44;41.70;101943.66;5047763;28;20720;-67
2023/05/21 05:35:23;;;;;;;1999.90;999.90;;;;;;;24.62;41.38;101943.66;5046728;28;20583;-68
2023/05/21 05:37:48;;;;;;;1999.90;999.90;;;;;;;24.09;42.07;101940.09;5049157;28;20028;-67
2023/05/21 05:40:14;;;;;;;1999.90;999.90;;;;;;;24.94;40.93;101933.94;5047085;28;20529;-68
2023/05/21 05:42:39;;;;;;;1999.90;999.90;;;;;;;23.44;43.46;101940.47;5047236;28;20100;-68
2023/05/21 05:45:05;;;;;;;1999.90;999.90;;;;;;;24.87;41.27;101933.41;5047330;28;20112;-66
2023/05/21 05:47:30;;;;;;;1999.90;999.90;;;;;;;24.35;42.51;101936.09;5049726;28;20048;-68
2023/05/21 05:49:56;;;;;;;1999.90;999.90;;;;;;;25.05;40.20;101938.72;5050973;28;20021;-68
2023/05/21 05:52:21;;;;;;;1999.90;999.90;;;;;;;24.81;41.53;101939.09;5052566;28;20397;-68
2023/05/21 05:54:47;;;;;;;1999.90;999.90;;;;;;;25.73;39.69;101932.31;5053099;28;20115;-68
2023/05/21 05:57:12;;;;;;;1999.90;999.90;;;;;;;24.84;40.92;101933.56;5050111;28;20119;-68
2023/05/21 05:59:37;;;;;;;1999.90;999.90;;;;;;;24.20;42.04;101943.94;5051547;28;20396;-67
2023/05/21 06:02:03;;;;;;;1999.90;999.90;;;;;;;25.40;40.20;101938.63;5051624;28;20037;-67
2023/05/21 06:04:29;;;;;;;1999.90;999.90;;;;;;;26.15;38.91;101938.88;5050770;28;20021;-68
2023/05/21 06:06:56;;;;;;;1999.90;999.90;;;;;;;26.02;38.34;101940.53;5052772;28;20034;-68
2023/05/21 06:09:22;;;;;;;1999.90;999.90;;;;;;;25.39;39.62;101950.28;5050821;28;20396;-68
2023/05/21 06:11:48;;;;;;;1999.90;999.90;;;;;;;25.65;40.28;101939.91;5050652;28;20029;-67
2023/05/21 06:14:13;;;;;;;1999.90;999.90;;;;;;;25.36;40.66;101943.28;5051998;28;20079;-67
2023/05/21 06:16:39;;;;;;;1999.90;999.90;;;;;;;26.04;38.91;101935.97;5052508;28;20033;-67
2023/05/21 06:19:04;;;;;;;1999.90;999.90;;;;;;;25.90;39.97;101934.91;5051367;28;20021;-67
2023/05/21 06:21:30;;;;;;;1999.90;999.90;;;;;;;26.38;38.47;101939.34;5051068;28;20078;-68
2023/05/21 06:23:55;;;;;;;1999.90;999.90;;;;;;;26.37;38.48;101937.59;5051344;28;20047;-68
2023/05/21 06:26:20;;;;;;;1999.90;999.90;;;;;;;25.94;39.57;101935.59;5049576;28;20397;-68
2023/05/21 06:28:46;;;;;;;1999.90;999.90;;;;;;;25.61;39.90;101946.41;5051245;28;20071;-68
2023/05/21 06:31:12;;;;;;;1999.90;999.90;;;;;;;25.97;39.58;101939.91;5051903;28;20036;-67
2023/05/21 06:33:37;;;;;;;1999.90;999.90;;;;;;;25.85;40.27;101945.00;5050193;28;20028;-67
2023/05/21 06:36:04;;;;;;;1999.90;999.90;;;;;;;25.35;40.88;101954.09;5050717;28;20443;-67
2023/05/21 06:38:29;;;;;;;1999.90;999.90;;;;;;;25.76;39.61;101958.94;5051520;28;20033;-68
2023/05/21 06:40:57;;;;;;;1504.25;753.97;;;;;;;25.33;41.17;101962.16;5052422;28;20492;-68
2023/05/21 06:43:22;;;;;;;17.63;16.52;;;;;;;27.09;37.73;101957.38;5050206;28;20029;-68
2023/05/21 06:45:48;;;;;;;18.20;17.02;;;;;;;25.43;40.96;101954.53;5051250;28;20531;-68
2023/05/21 06:48:15;;;;;;;16.17;15.27;;;;;;;26.55;38.83;101949.88;5050059;28;20120;-68
2023/05/21 06:50:41;;;;;;;16.80;15.80;;;;;;;26.80;38.58;101956.47;5050584;28;20457;-67
2023/05/21 06:53:07;;;;;;;18.08;16.98;;;;;;;25.53;40.63;101953.06;5049306;28;20060;-68
2023/05/21 06:55:32;;;;;;;16.45;15.35;;;;;;;26.62;39.01;101946.84;5051931;28;20476;-68
2023/05/21 06:57:58;;;;;;;17.95;16.75;;;;;;;26.10;38.87;101943.63;5049973;28;20456;-68
2023/05/21 07:00:23;;;;;;;16.42;15.38;;;;;;;25.79;40.00;101941.81;5048596;28;20440;-68
2023/05/21 07:02:50;;;;;;;15.98;14.98;;;;;;;26.65;38.82;101947.50;5050518;28;20044;-68
2023/05/21 07:05:15;;;;;;;16.48;15.40;;;;;;;27.37;37.79;101949.44;5049870;28;20094;-68
2023/05/21 07:07:41;;;;;;;16.60;15.45;;;;;;;26.44;38.22;101957.72;5049692;28;20428;-68
2023/05/21 07:10:07;;;;;;;16.08;15.18;;;;;;;27.45;37.13;101957.84;5049616;28;20500;-68
2023/05/21 07:12:32;;;;;;;15.57;14.57;;;;;;;25.38;41.26;101965.47;5050290;28;20025;-68
2023/05/21 07:14:58;;;;;;;14.85;13.88;;;;;;;24.95;41.31;101956.19;5049289;28;20074;-67
2023/05/21 07:17:23;;;;;;;15.80;14.80;;;;;;;26.10;38.76;101951.66;5049687;28;20670;-68
2023/05/21 07:19:49;;;;;;;16.27;15.18;;;;;;;27.19;37.34;101960.34;5050711;28;20043;-67
2023/05/21 07:22:14;;;;;;;15.00;14.10;;;;;;;27.31;37.01;101961.34;5048872;28;20082;-68
2023/05/21 07:24:39;;;;;;;15.95;14.75;;;;;;;25.65;39.98;101955.97;5050088;28;20032;-68
2023/05/21 07:27:05;;;;;;;15.55;14.50;;;;;;;26.31;38.54;101959.38;5049290;28;20021;-67
2023/05/21 07:29:32;;;;;;;14.48;13.48;;;;;;;27.15;37.39;101955.22;5050700;28;20029;-67
2023/05/21 07:31:58;;;;;;;15.77;14.75;;;;;;;26.85;38.04;101959.75;5049882;28;20044;-67
2023/05/21 07:34:23;;;;;;;14.80;13.80;;;;;;;27.05;37.57;101955.84;5050486;28;20036;-66
2023/05/21 07:36:48;;;;;;;14.80;13.90;;;;;;;27.17;37.18;101956.88;5048842;28;20025;-67
2023/05/21 07:39:14;;;;;;;14.30;13.50;;;;;;;26.95;37.32;101960.03;5049396;28;20060;-67
2023/05/21 07:41:39;;;;;;;15.52;14.48;;;;;;;25.22;41.02;101962.75;5050874;28;20036;-67
2023/05/21 07:44:05;;;;;;;15.70;14.80;;;;;;;26.46;39.39;101958.50;5048248;28;20024;-68
2023/05/21 07:46:30;;;;;;;15.88;14.88;;;;;;;27.97;36.09;101941.97;5049922;28;20033;-68
2023/05/21 07:48:56;;;;;;;15.18;14.02;;;;;;;26.03;38.88;101956.50;5050166;28;20033;-67
2023/05/21 07:51:21;;;;;;;15.13;14.13;;;;;;;26.05;39.21;101949.25;5050520;28;20071;-68
2023/05/21 07:53:46;;;;;;;15.90;14.90;;;;;;;26.56;39.06;101948.94;5049451;28;20079;-68
2023/05/21 07:56:12;;;;;;;14.52;13.63;;;;;;;27.33;37.33;101947.88;5048372;28;20028;-68
2023/05/21 07:58:38;;;;;;;14.90;14.00;;;;;;;26.73;38.25;101947.06;5050402;28;20133;-67
2023/05/21 08:01:05;;;;;;;15.73;14.50;;;;;;;27.86;36.90;101948.94;5050730;28;20049;-68
2023/05/21 08:03:30;;;;;;;14.43;13.63;;;;;;;27.21;37.84;101942.28;5048727;28;20104;-68
2023/05/21 08:05:56;;;;;;;15.75;14.65;;;;;;;26.75;38.46;101945.19;5050712;28;20104;-68
2023/05/21 08:08:22;;;;;;;14.63;13.73;;;;;;;25.70;39.57;101937.84;5049803;28;20478;-68
2023/05/21 08:10:48;;;;;;;15.38;14.48;;;;;;;26.76;38.01;101944.19;5048105;28;20465;-67
2023/05/21 08:13:16;;;;;;;14.07;13.27;;;;;;;27.42;37.20;101931.19;5048663;28;20032;-68
2023/05/21 08:15:41;;;;;;;16.65;15.63;;;;;;;26.68;38.37;101935.72;5048813;28;20022;-68
2023/05/21 08:18:07;;;;;;;14.63;13.63;;;;;;;26.47;39.09;101936.06;5047785;28;20079;-67
2023/05/21 08:20:33;;;;;;;14.93;13.93;;;;;;;25.74;39.78;101944.75;5049013;28;20438;-68
2023/05/21 08:23:01;;;;;;;15.93;14.70;;;;;;;27.12;37.52;101942.91;5048782;28;20431;-68
2023/05/21 08:25:27;;;;;;;15.57;14.68;;;;;;;27.90;36.67;101941.50;5047722;28;20029;-69
2023/05/21 08:27:52;;;;;;;15.52;14.48;;;;;;;27.90;36.28;101945.06;5048872;28;20024;-68
2023/05/21 08:30:18;;;;;;;15.80;14.70;;;;;;;28.26;35.89;101945.41;5048364;28;20029;-67
2023/05/21 08:32:43;;;;;;;14.85;13.75;;;;;;;27.48;36.92;101946.91;5048104;28;20029;-66
2023/05/21 08:35:09;;;;;;;15.02;13.90;;;;;;;28.11;35.39;101944.63;5048291;28;20029;-67
2023/05/21 08:37:34;;;;;;;14.45;13.48;;;;;;;27.51;37.24;101946.69;5048744;28;20021;-67
2023/05/21 08:40:00;;;;;;;15.15;14.15;;;;;;;28.60;35.17;101927.84;5048142;28;20028;-68
2023/05/21 08:42:35;;;;;;;13.90;12.95;;;;;;;29.09;34.27;101930.75;5047932;28;20384;-68
2023/05/21 08:45:04;;;;;;;13.27;12.48;;;;;;;27.18;36.55;101939.81;5049538;28;20074;-68
2023/05/21 08:47:35;;;;;;;13.32;12.40;;;;;;;27.72;35.53;101930.16;5048455;28;20032;-68
2023/05/21 08:50:04;;;;;;;13.60;12.60;;;;;;;29.52;33.10;101927.66;5048465;28;20047;-68
2023/05/21 08:52:31;;;;;;;14.20;13.18;;;;;;;29.68;32.59;101926.53;5048961;28;20033;-68
2023/05/21 08:54:57;;;;;;;14.98;13.98;;;;;;;27.53;35.34;101934.06;5049985;28;20487;-67
2023/05/21 08:57:24;;;;;;;14.95;13.95;;;;;;;26.82;36.29;101941.16;5047752;28;20064;-68
2023/05/21 08:59:49;;;;;;;14.23;13.32;;;;;;;28.33;34.12;101932.41;5047501;28;20044;-67
2023/05/21 09:02:17;;;;;;;14.85;13.75;;;;;;;27.37;35.91;101934.19;5047852;28;20013;-68
2023/05/21 09:04:48;;;;;;;14.90;13.90;;;;;;;28.24;33.85;101929.38;5048175;28;20520;-68
2023/05/21 09:07:14;;;;;;;14.40;13.35;;;;;;;29.24;33.37;101926.09;5048357;28;20031;-67
2023/05/21 09:10:02;;;;;;;14.15;13.25;;;;;;;28.84;33.09;101920.84;5048265;28;20459;-67
2023/05/21 09:12:28;;;;;;;13.88;12.98;;;;;;;27.31;35.83;101929.16;5048847;28;20032;-67
2023/05/21 09:14:56;;;;;;;14.90;13.93;;;;;;;27.95;35.44;101927.78;5047362;28;20463;-68
2023/05/21 09:17:23;;;;;;;14.60;13.65;;;;;;;27.17;36.30;101916.63;5048981;28;20028;-67
2023/05/21 09:20:27;;;;;;;14.55;13.48;;;;;;;28.53;34.12;101912.22;5048272;28;20444;-68
2023/05/21 09:22:54;;;;;;;14.35;13.32;;;;;;;29.31;32.91;101918.47;5006745;28;20038;-67
2023/05/21 09:25:22;;;;;;;15.25;14.15;;;;;;;27.83;35.53;101924.94;4990358;28;20100;-67
2023/05/21 09:27:48;;;;;;;14.35;13.45;;;;;;;29.71;33.29;101920.91;5016434;28;20116;-68
2023/05/21 09:30:16;;;;;;;15.20;14.13;;;;;;;28.88;32.98;101923.25;5047473;28;20131;-67
2023/05/21 09:32:42;;;;;;;12.60;11.77;;;;;;;29.48;30.69;101915.38;5049278;28;20021;-67
2023/05/21 09:35:12;;;;;;;13.63;12.73;;;;;;;29.86;31.49;101913.53;5047754;28;20106;-67
2023/05/21 09:37:45;;;;;;;14.65;13.45;;;;;;;30.71;30.38;101912.47;5049232;28;20028;-67
2023/05/21 09:40:18;;;;;;;13.63;12.65;;;;;;;30.58;29.55;101921.53;5047602;28;20029;-67
2023/05/21 09:42:48;;;;;;;15.52;14.23;;;;;;;31.68;29.22;101922.72;5047182;28;20618;-66
2023/05/21 09:45:32;;;;;;;14.68;13.63;;;;;;;34.08;25.42;101902.59;5047376;28;20028;-66
2023/05/21 09:47:58;;;;;;;14.77;13.77;;;;;;;32.69;26.38;101909.66;5047693;28;20025;-65
2023/05/21 09:50:26;;;;;;;14.63;13.73;;;;;;;32.91;27.28;101914.91;5046708;28;20209;-66
2023/05/21 09:52:54;;;;;;;14.70;13.77;;;;;;;33.10;27.01;101907.88;5047719;28;20021;-65
2023/05/21 09:55:23;;;;;;;13.90;12.93;;;;;;;32.42;27.70;101886.72;5047205;28;20033;-65
2023/05/21 09:57:50;;;;;;;13.90;12.90;;;;;;;33.85;25.90;101902.88;5047703;28;20044;-66
2023/05/21 10:00:23;;;;;;;12.73;12.00;;;;;;;33.82;25.78;101895.06;5048392;28;20024;-66
2023/05/21 10:02:53;;;;;;;14.25;13.25;;;;;;;33.94;25.42;101907.47;5046946;28;20072;-67
2023/05/21 10:05:19;;;;;;;14.48;13.48;;;;;;;32.35;26.26;101896.38;5047251;28;20025;-66
2023/05/21 10:07:51;;;;;;;13.75;12.80;;;;;;;33.06;26.42;101895.59;5047293;28;20025;-67
2023/05/21 10:10:20;;;;;;;12.05;11.35;;;;;;;33.30;26.42;101900.66;5046265;28;20033;-67
2023/05/21 10:12:50;;;;;;;13.82;12.93;;;;;;;30.74;29.18;101899.56;5048906;28;20029;-66
2023/05/21 10:15:19;;;;;;;13.23;12.48;;;;;;;32.38;27.75;101891.53;5048621;28;20024;-66
2023/05/21 10:17:47;;;;;;;12.38;11.60;;;;;;;32.08;28.08;101895.00;5046496;28;20025;-67
2023/05/21 10:20:13;;;;;;;12.95;12.15;;;;;;;31.01;29.23;101889.38;5046968;28;20027;-66
2023/05/21 10:22:39;;;;;;;13.70;12.90;;;;;;;31.01;29.40;101895.66;5048798;28;20024;-66
2023/05/21 10:25:08;;;;;;;13.35;12.48;;;;;;;32.29;28.03;101893.19;5047635;28;20104;-66
2023/05/21 10:27:35;;;;;;;13.07;12.30;;;;;;;31.58;28.65;101887.47;5047475;28;20485;-66
2023/05/21 10:30:01;;;;;;;13.13;12.40;;;;;;;30.67;29.60;101892.09;5047101;28;20028;-66
2023/05/21 10:32:27;;;;;;;14.07;13.27;;;;;;;30.76;29.31;101892.22;5047560;28;20021;-66
2023/05/21 10:34:53;;;;;;;15.75;14.65;;;;;;;31.29;30.00;101883.47;5049590;28;20035;-66
2023/05/21 10:37:22;;;;;;;13.23;12.43;;;;;;;29.38;32.02;101882.03;5050568;28;20021;-66
2023/05/21 10:39:49;;;;;;;14.82;13.98;;;;;;;32.34;28.42;101886.53;5050156;28;20031;-66
2023/05/21 10:42:20;;;;;;;14.20;13.40;;;;;;;31.20;29.42;101886.94;5050133;28;20037;-67
2023/05/21 10:44:58;;;;;;;13.13;12.32;;;;;;;34.13;26.90;101875.91;5050135;28;20483;-66
2023/05/21 10:47:48;;;;;;;13.50;12.50;;;;;;;33.47;26.02;101883.75;5050407;28;20033;-67
2023/05/21 10:50:28;;;;;;;13.55;12.60;;;;;;;33.33;27.24;101880.56;5051496;28;20025;-67
2023/05/21 10:53:00;;;;;;;12.52;11.63;;;;;;;32.04;28.15;101880.91;5049769;28;20099;-67
2023/05/21 10:55:54;;;;;;;13.98;13.07;;;;;;;32.70;27.14;101879.78;5050332;28;20056;-67
2023/05/21 10:58:55;;;;;;;13.30;12.48;;;;;;;32.35;28.38;101874.75;5049934;28;20060;-66